createdAt,value
2023-04-24T00:04:02.906Z,99965.56
2023-04-24T00:14:24.462Z,99959.81
2023-04-24T00:24:45.809Z,99953.69
2023-04-24T00:35:07.468Z,99952.97
2023-04-24T00:45:29.012Z,99964.81
2023-04-24T00:55:52.344Z,99946.78
2023-04-24T01:06:14.388Z,99932.63
2023-04-24T01:16:36.765Z,99928.28
2023-04-24T01:26:58.251Z,99919.38
2023-04-24T01:37:19.658Z,99910.16
2023-04-24T01:47:41.245Z,99902.47
2023-04-24T01:58:03.231Z,99904.06
2023-04-24T02:08:24.952Z,99896.53
2023-04-24T02:18:46.357Z,99886.91
2023-04-24T02:29:07.755Z,99884.47
2023-04-24T02:39:29.115Z,99881.53
2023-04-24T02:49:50.490Z,99889.22
2023-04-24T03:00:12.626Z,99879.66
2023-04-24T03:10:33.995Z,99886.69
2023-04-24T03:20:55.353Z,99880.66
2023-04-24T03:31:17.656Z,99886.00
2023-04-24T03:41:39.104Z,99885.16
2023-04-24T03:52:00.469Z,99883.31
2023-04-24T04:02:21.955Z,99902.25
2023-04-24T04:12:43.463Z,99907.91
2023-04-24T04:23:04.886Z,99904.66
2023-04-24T04:33:26.915Z,99917.19
2023-04-24T04:43:48.688Z,99927.88
2023-04-24T04:54:10.050Z,99934.34
2023-04-24T05:04:31.585Z,99938.22
2023-04-24T05:14:53.169Z,99935.53
2023-04-24T05:25:14.610Z,99950.19
2023-04-24T05:35:36.011Z,99967.41
2023-04-24T05:45:57.441Z,99967.38
2023-04-24T05:56:19.453Z,99969.50
2023-04-24T06:06:41.329Z,99972.47
2023-04-24T06:17:02.902Z,99983.84
2023-04-24T06:27:24.284Z,99979.41
2023-04-24T06:37:45.633Z,99987.03
2023-04-24T06:48:07.174Z,99986.75
2023-04-24T06:58:28.727Z,99981.03
2023-04-24T07:08:50.275Z,99995.06
2023-04-24T07:19:11.792Z,100009.69
2023-04-24T07:29:33.162Z,100010.47
2023-04-24T07:39:55.982Z,100014.34
2023-04-24T07:50:17.554Z,100019.84
2023-04-24T08:00:39.064Z,100017.38
2023-04-24T08:11:00.418Z,100031.91
2023-04-24T08:21:22.440Z,100046.22
2023-04-24T08:31:43.952Z,100043.47
2023-04-24T08:42:08.868Z,100048.75
2023-04-24T08:52:30.888Z,100049.03
2023-04-24T09:02:53.452Z,100057.69
2023-04-24T09:13:15.561Z,100063.03
2023-04-24T09:23:36.966Z,100074.84
2023-04-24T09:34:01.716Z,100091.47
2023-04-24T09:44:24.227Z,100095.06
2023-04-24T09:54:53.432Z,100094.53
2023-04-24T10:05:16.250Z,100104.72
2023-04-24T10:15:38.239Z,100099.59
2023-04-24T10:26:01.275Z,100102.25
2023-04-24T10:36:24.590Z,100113.53
2023-04-24T10:46:48.503Z,100122.47
2023-04-24T10:57:19.452Z,100125.13
2023-04-24T11:08:06.225Z,100137.22
2023-04-24T11:18:37.655Z,100147.84
2023-04-24T11:29:08.883Z,100149.44
2023-04-24T11:39:37.123Z,100176.03
2023-04-24T11:49:59.406Z,100175.19
2023-04-24T12:00:22.531Z,100211.44
2023-04-24T12:10:44.075Z,100238.81
2023-04-24T12:21:23.183Z,100275.47
2023-04-24T12:31:44.837Z,100304.13
2023-04-24T12:42:06.354Z,100332.34
2023-04-24T12:52:28.941Z,100350.00
2023-04-24T13:02:50.633Z,100379.53
2023-04-24T13:13:12.241Z,100386.38
2023-04-24T13:23:33.622Z,100408.84
2023-04-24T13:33:55.071Z,100410.66
2023-04-24T13:44:17.336Z,100428.63
2023-04-24T13:54:38.899Z,100445.50
2023-04-24T14:05:00.471Z,100442.72
2023-04-24T14:15:22.129Z,100452.13
2023-04-24T14:25:43.517Z,100458.22
2023-04-24T14:36:06.571Z,100474.22
2023-04-24T14:46:28.028Z,100486.66
2023-04-24T14:56:49.797Z,100496.69
2023-04-24T15:07:11.185Z,100509.34
2023-04-24T15:17:33.021Z,100513.63
2023-04-24T15:27:54.460Z,100521.50
2023-04-24T15:38:15.856Z,100530.13
2023-04-24T15:48:39.276Z,100537.72
2023-04-24T15:59:00.879Z,100550.44
2023-04-24T16:09:22.278Z,100554.03
2023-04-24T16:19:43.636Z,100572.38
2023-04-24T16:30:05.670Z,100574.22
2023-04-24T16:40:27.114Z,100562.84
2023-04-24T16:50:48.475Z,100584.38
2023-04-24T17:01:10.127Z,100579.22
2023-04-24T17:11:31.562Z,100577.44
2023-04-24T17:21:53.088Z,100584.34
2023-04-24T17:32:14.501Z,100577.53
2023-04-24T17:42:38.365Z,100586.09
2023-04-24T17:52:59.813Z,100591.56
2023-04-24T18:03:21.357Z,100598.78
2023-04-24T18:13:42.928Z,100607.03
2023-04-24T18:24:04.461Z,100601.19
2023-04-24T18:34:26.146Z,100625.47
2023-04-24T18:44:47.537Z,100623.72
2023-04-24T18:55:09.796Z,100629.06
2023-04-24T19:05:31.228Z,100642.94
2023-04-24T19:15:52.574Z,100643.81
2023-04-24T19:26:14.469Z,100658.38
2023-04-24T19:36:36.429Z,100658.38
2023-04-24T19:46:57.859Z,100685.97
2023-04-24T19:57:19.245Z,100689.69
2023-04-24T20:07:40.650Z,100693.50
2023-04-24T20:18:02.050Z,100697.03
2023-04-24T20:28:24.291Z,100702.25
2023-04-24T20:38:47.087Z,100714.34
2023-04-24T20:49:08.694Z,100714.59
2023-04-24T20:59:30.266Z,100711.28
2023-04-24T21:09:51.657Z,100721.66
2023-04-24T21:20:13.078Z,100728.53
2023-04-24T21:30:34.437Z,100721.69
2023-04-24T21:40:55.836Z,100728.53
2023-04-24T21:51:18.018Z,100726.78
2023-04-24T22:01:39.503Z,100730.16
2023-04-24T22:12:01.634Z,100732.75
2023-04-24T22:22:23.032Z,100740.50
2023-04-24T22:32:44.471Z,100746.41
2023-04-24T22:43:06.347Z,100745.50
2023-04-24T22:53:28.858Z,100777.38
2023-04-24T23:03:51.489Z,100785.47
2023-04-24T23:14:13.194Z,100783.13
2023-04-24T23:24:34.539Z,100805.56
2023-04-24T23:34:56.452Z,100809.91
2023-04-24T23:45:17.857Z,100810.88
2023-04-24T23:55:39.230Z,100817.03
